createdAt,value
2023-04-23T00:01:05.686Z,38.15
2023-04-23T00:03:36.460Z,38.49
2023-04-23T00:06:07.942Z,38.36
2023-04-23T00:08:34.548Z,38.41
2023-04-23T00:11:01.804Z,38.33
2023-04-23T00:13:28.567Z,38.49
2023-04-23T00:15:55.572Z,38.33
2023-04-23T00:18:22.203Z,38.34
2023-04-23T00:20:48.820Z,38.31
2023-04-23T00:23:15.448Z,38.19
2023-04-23T00:25:41.999Z,37.96
2023-04-23T00:28:08.615Z,37.91
2023-04-23T00:30:35.379Z,37.78
2023-04-23T00:33:02.183Z,37.67
2023-04-23T00:35:28.870Z,37.73
2023-04-23T00:37:55.897Z,37.66
2023-04-23T00:40:23.661Z,37.79
2023-04-23T00:42:52.307Z,37.35
2023-04-23T00:45:18.928Z,37.77
2023-04-23T00:47:46.330Z,38.00
2023-04-23T00:50:13.273Z,37.89
2023-04-23T00:52:40.870Z,37.74
2023-04-23T00:55:08.524Z,37.70
2023-04-23T00:57:36.432Z,37.80
2023-04-23T01:00:03.714Z,37.85
2023-04-23T01:02:31.238Z,37.96
2023-04-23T01:04:58.806Z,37.75
2023-04-23T01:07:27.214Z,37.84
2023-04-23T01:09:53.929Z,37.89
2023-04-23T01:12:20.483Z,37.88
2023-04-23T01:14:47.099Z,37.93
2023-04-23T01:17:13.780Z,37.88
2023-04-23T01:19:40.541Z,37.72
2023-04-23T01:22:11.796Z,37.67
2023-04-23T01:24:39.396Z,37.96
2023-04-23T01:27:06.218Z,37.64
2023-04-23T01:29:33.193Z,37.88
2023-04-23T01:32:00.145Z,37.27
2023-04-23T01:34:26.730Z,38.03
2023-04-23T01:36:54.455Z,37.23
2023-04-23T01:39:21.015Z,37.59
2023-04-23T01:41:47.596Z,38.11
2023-04-23T01:44:14.259Z,38.73
2023-04-23T01:46:41.094Z,37.46
2023-04-23T01:49:08.228Z,37.76
2023-04-23T01:51:35.598Z,37.69
2023-04-23T01:54:02.142Z,38.25
2023-04-23T01:56:29.062Z,38.61
2023-04-23T01:58:55.956Z,38.31
2023-04-23T02:01:22.698Z,37.85
2023-04-23T02:03:50.082Z,38.26
2023-04-23T02:06:17.004Z,37.87
2023-04-23T02:08:43.646Z,38.59
2023-04-23T02:11:10.202Z,38.38
2023-04-23T02:13:36.776Z,37.93
2023-04-23T02:16:03.378Z,38.52
2023-04-23T02:18:30.041Z,38.62
2023-04-23T02:20:57.501Z,38.61
2023-04-23T02:23:24.053Z,38.60
2023-04-23T02:25:52.314Z,38.59
2023-04-23T02:28:18.968Z,38.67
2023-04-23T02:30:47.876Z,38.57
2023-04-23T02:33:14.680Z,38.50
2023-04-23T02:35:41.559Z,38.29
2023-04-23T02:38:08.200Z,38.70
2023-04-23T02:40:34.836Z,38.80
2023-04-23T02:43:01.411Z,39.42
2023-04-23T02:45:27.912Z,38.60
2023-04-23T02:47:54.591Z,38.98
2023-04-23T02:50:21.442Z,39.32
2023-04-23T02:52:48.944Z,38.24
2023-04-23T02:55:16.171Z,38.85
2023-04-23T02:57:43.315Z,38.41
2023-04-23T03:00:12.329Z,39.26
2023-04-23T03:02:38.992Z,39.92
2023-04-23T03:05:06.668Z,39.74
2023-04-23T03:07:33.254Z,40.88
2023-04-23T03:09:59.816Z,40.35
2023-04-23T03:12:26.381Z,39.72
2023-04-23T03:14:52.966Z,39.06
2023-04-23T03:17:19.497Z,38.22
2023-04-23T03:19:46.125Z,38.33
2023-04-23T03:22:12.734Z,37.96
2023-04-23T03:24:39.510Z,37.81
2023-04-23T03:27:06.171Z,37.55
2023-04-23T03:29:32.735Z,37.31
2023-04-23T03:31:59.406Z,37.38
2023-04-23T03:34:25.954Z,37.31
2023-04-23T03:36:52.582Z,37.10
2023-04-23T03:39:19.146Z,37.33
2023-04-23T03:41:46.089Z,37.25
2023-04-23T03:44:12.716Z,37.21
2023-04-23T03:46:39.456Z,37.35
2023-04-23T03:49:06.040Z,37.39
2023-04-23T03:51:32.658Z,37.66
2023-04-23T03:53:59.291Z,37.29
2023-04-23T03:56:27.126Z,37.15
2023-04-23T03:58:53.930Z,37.48
2023-04-23T04:01:20.542Z,37.73
2023-04-23T04:03:47.272Z,37.59
2023-04-23T04:06:14.104Z,37.66
2023-04-23T04:08:40.742Z,37.78
2023-04-23T04:11:08.399Z,37.54
2023-04-23T04:13:35.024Z,36.95
2023-04-23T04:16:01.761Z,37.61
2023-04-23T04:18:28.281Z,37.18
2023-04-23T04:20:55.193Z,37.25
2023-04-23T04:23:22.310Z,37.00
2023-04-23T04:25:51.010Z,36.99
2023-04-23T04:28:17.779Z,36.98
2023-04-23T04:30:44.816Z,36.67
2023-04-23T04:33:11.586Z,36.69
2023-04-23T04:35:38.166Z,36.41
2023-04-23T04:38:04.713Z,36.08
2023-04-23T04:40:31.600Z,35.37
2023-04-23T04:43:00.158Z,34.96
2023-04-23T04:45:26.721Z,35.07
2023-04-23T04:47:53.253Z,34.71
2023-04-23T04:50:19.813Z,34.76
2023-04-23T04:52:46.373Z,34.90
2023-04-23T04:55:13.002Z,34.95
2023-04-23T04:57:39.544Z,34.89
2023-04-23T05:00:38.662Z,34.93
2023-04-23T05:03:05.516Z,35.17
2023-04-23T05:05:32.590Z,35.13
2023-04-23T05:08:05.173Z,35.31
2023-04-23T05:10:31.755Z,35.17
2023-04-23T05:12:58.464Z,35.28
2023-04-23T05:15:25.057Z,35.03
2023-04-23T05:17:53.700Z,34.92
2023-04-23T05:20:20.982Z,34.95
2023-04-23T05:22:47.863Z,34.65
2023-04-23T05:25:14.482Z,34.21
2023-04-23T05:27:41.398Z,34.44
2023-04-23T05:30:09.596Z,33.85
2023-04-23T05:32:36.746Z,33.88
2023-04-23T05:35:03.974Z,33.62
2023-04-23T05:37:31.888Z,33.68
2023-04-23T05:39:58.565Z,33.48
2023-04-23T05:42:25.298Z,33.49
2023-04-23T05:44:52.075Z,33.88
2023-04-23T05:47:18.766Z,34.28
2023-04-23T05:49:45.310Z,34.24
2023-04-23T05:52:12.118Z,34.65
2023-04-23T05:54:39.362Z,34.36
2023-04-23T05:57:06.102Z,34.22
2023-04-23T05:59:32.727Z,33.89
2023-04-23T06:01:59.563Z,33.95
2023-04-23T06:04:27.186Z,33.77
2023-04-23T06:06:54.058Z,33.86
2023-04-23T06:09:20.630Z,33.90
2023-04-23T06:11:47.257Z,33.89
2023-04-23T06:14:13.805Z,33.79
2023-04-23T06:16:40.395Z,33.54
2023-04-23T06:19:06.919Z,33.47
2023-04-23T06:21:33.686Z,33.22
2023-04-23T06:24:00.336Z,33.20
2023-04-23T06:26:26.968Z,33.19
2023-04-23T06:28:53.747Z,32.97
2023-04-23T06:31:20.510Z,32.59
2023-04-23T06:33:47.078Z,32.37
2023-04-23T06:36:14.825Z,31.98
2023-04-23T06:38:41.382Z,31.98
2023-04-23T06:41:08.009Z,32.14
2023-04-23T06:43:34.829Z,32.52
2023-04-23T06:46:01.399Z,32.31
2023-04-23T06:48:27.968Z,32.23
2023-04-23T06:50:54.550Z,32.28
2023-04-23T06:53:22.191Z,32.25
2023-04-23T06:55:50.296Z,32.37
2023-04-23T06:58:17.473Z,32.29
2023-04-23T07:00:44.145Z,32.01
2023-04-23T07:03:10.897Z,31.61
2023-04-23T07:05:37.515Z,31.95
2023-04-23T07:08:04.042Z,31.84
2023-04-23T07:10:30.602Z,31.62
2023-04-23T07:12:57.173Z,31.61
2023-04-23T07:15:23.786Z,31.42
2023-04-23T07:17:50.509Z,31.34
2023-04-23T07:20:17.202Z,31.29
2023-04-23T07:22:43.836Z,31.19
2023-04-23T07:25:10.403Z,31.15
2023-04-23T07:27:37.349Z,31.24
2023-04-23T07:30:05.109Z,31.33
2023-04-23T07:32:31.833Z,30.89
2023-04-23T07:34:58.418Z,31.30
2023-04-23T07:37:24.996Z,31.30
2023-04-23T07:39:53.659Z,30.43
2023-04-23T07:42:20.478Z,30.94
2023-04-23T07:44:47.079Z,30.69
2023-04-23T07:47:14.051Z,30.62
2023-04-23T07:49:40.773Z,31.20
2023-04-23T07:52:08.320Z,29.46
2023-04-23T07:54:35.035Z,30.20
2023-04-23T07:57:01.554Z,30.87
2023-04-23T07:59:28.136Z,30.55
2023-04-23T08:01:55.245Z,30.93
2023-04-23T08:04:22.128Z,30.94
2023-04-23T08:06:48.881Z,30.66
2023-04-23T08:09:15.411Z,28.76
2023-04-23T08:11:42.042Z,29.94
2023-04-23T08:14:08.688Z,28.72
2023-04-23T08:16:38.074Z,28.39
2023-04-23T08:19:06.413Z,28.80
2023-04-23T08:21:33.767Z,28.96
2023-04-23T08:24:00.591Z,29.49
2023-04-23T08:26:27.184Z,28.85
2023-04-23T08:28:53.774Z,27.83
2023-04-23T08:31:26.528Z,27.92
2023-04-23T08:33:53.839Z,28.36
2023-04-23T08:36:20.591Z,28.53
2023-04-23T08:38:47.127Z,28.70
2023-04-23T08:41:14.634Z,27.81
2023-04-23T08:43:44.244Z,27.76
2023-04-23T08:46:13.747Z,26.67
2023-04-23T08:48:44.606Z,26.73
2023-04-23T08:51:13.424Z,27.29
2023-04-23T08:53:44.002Z,27.34
2023-04-23T08:56:11.440Z,27.19
2023-04-23T08:58:38.043Z,26.96
2023-04-23T09:01:04.742Z,27.24
2023-04-23T09:03:33.443Z,27.21
2023-04-23T09:06:00.766Z,27.66
2023-04-23T09:08:27.296Z,27.92
2023-04-23T09:10:55.735Z,27.90
2023-04-23T09:13:23.413Z,27.79
2023-04-23T09:15:50.043Z,27.89
2023-04-23T09:18:17.395Z,28.06
2023-04-23T09:20:44.571Z,27.57
2023-04-23T09:23:14.196Z,27.57
2023-04-23T09:25:40.841Z,27.37
2023-04-23T09:28:08.874Z,27.13
2023-04-23T09:30:39.102Z,27.51
2023-04-23T09:33:05.669Z,27.31
2023-04-23T09:35:32.845Z,27.69
2023-04-23T09:37:59.520Z,27.68
2023-04-23T09:40:27.174Z,27.56
2023-04-23T09:42:55.208Z,27.20
2023-04-23T09:45:22.125Z,27.30
2023-04-23T09:47:49.726Z,25.89
2023-04-23T09:50:16.365Z,26.37
2023-04-23T09:52:43.076Z,26.30
2023-04-23T09:55:09.772Z,26.54
2023-04-23T09:57:40.780Z,26.40
2023-04-23T10:00:15.293Z,26.63
2023-04-23T10:02:46.297Z,26.56
2023-04-23T10:05:24.517Z,26.42
2023-04-23T10:07:52.804Z,25.65
2023-04-23T10:10:19.968Z,26.01
2023-04-23T10:12:54.726Z,25.71
2023-04-23T10:15:23.313Z,25.86
2023-04-23T10:17:51.206Z,26.05
2023-04-23T10:20:20.084Z,25.58
2023-04-23T10:22:46.927Z,25.15
2023-04-23T10:25:13.535Z,24.71
2023-04-23T10:27:53.293Z,24.51
2023-04-23T10:30:21.308Z,22.71
2023-04-23T10:32:48.870Z,22.11
2023-04-23T10:35:15.531Z,22.52
2023-04-23T10:37:42.283Z,21.75
2023-04-23T10:40:12.480Z,21.89
2023-04-23T10:42:39.999Z,21.41
2023-04-23T10:45:24.139Z,21.44
2023-04-23T10:47:53.211Z,22.55
2023-04-23T10:50:29.761Z,22.28
2023-04-23T10:52:57.656Z,20.23
2023-04-23T10:55:25.918Z,19.78
2023-04-23T10:57:59.243Z,20.08
2023-04-23T11:00:27.924Z,19.11
2023-04-23T11:02:55.272Z,18.98
2023-04-23T11:05:23.566Z,19.07
2023-04-23T11:08:18.098Z,19.71
2023-04-23T11:10:56.279Z,18.53
2023-04-23T11:13:26.166Z,18.85
2023-04-23T11:16:11.659Z,19.74
2023-04-23T11:18:58.529Z,18.40
2023-04-23T11:21:43.858Z,19.12
2023-04-23T11:24:10.647Z,17.65
2023-04-23T11:26:37.913Z,18.24
2023-04-23T11:29:05.523Z,18.19
2023-04-23T11:31:32.949Z,17.27
2023-04-23T11:34:00.102Z,18.61
2023-04-23T11:36:27.632Z,19.12
2023-04-23T11:38:56.402Z,16.71
2023-04-23T11:41:23.413Z,17.09
2023-04-23T11:43:50.005Z,17.77
2023-04-23T11:46:16.648Z,16.15
2023-04-23T11:48:43.267Z,16.47
2023-04-23T11:51:09.830Z,16.83
2023-04-23T11:53:36.535Z,17.44
2023-04-23T11:56:04.188Z,17.48
2023-04-23T11:58:31.085Z,17.49
2023-04-23T12:00:59.392Z,17.57
2023-04-23T12:03:27.317Z,17.55
2023-04-23T12:05:55.947Z,16.21
2023-04-23T12:08:22.812Z,18.19
2023-04-23T12:10:59.304Z,17.70
2023-04-23T12:13:33.858Z,17.59
2023-04-23T12:16:01.693Z,15.93
2023-04-23T12:18:29.201Z,16.95
2023-04-23T12:20:55.955Z,16.73
2023-04-23T12:23:28.484Z,16.45
2023-04-23T12:25:55.249Z,17.25
2023-04-23T12:28:25.671Z,17.00
2023-04-23T12:30:52.369Z,16.66
2023-04-23T12:33:19.078Z,14.88
2023-04-23T12:35:50.320Z,15.37
2023-04-23T12:38:26.905Z,15.94
2023-04-23T12:40:54.226Z,15.31
2023-04-23T12:43:20.832Z,16.00
2023-04-23T12:45:47.472Z,16.54
2023-04-23T12:48:14.088Z,17.27
2023-04-23T12:50:41.125Z,16.96
2023-04-23T12:53:08.187Z,16.96
2023-04-23T12:55:34.719Z,16.79
2023-04-23T12:58:01.635Z,15.23
2023-04-23T13:00:28.345Z,16.30
2023-04-23T13:02:56.007Z,16.17
2023-04-23T13:05:23.596Z,15.53
2023-04-23T13:07:50.152Z,15.87
2023-04-23T13:10:16.750Z,16.17
2023-04-23T13:12:43.294Z,15.76
2023-04-23T13:15:12.084Z,15.94
2023-04-23T13:17:38.684Z,15.02
2023-04-23T13:20:05.686Z,16.49
2023-04-23T13:22:33.137Z,16.52
2023-04-23T13:25:00.029Z,16.42
2023-04-23T13:27:29.253Z,15.55
2023-04-23T13:29:56.191Z,14.15
2023-04-23T13:32:24.044Z,15.30
2023-04-23T13:34:50.686Z,15.84
2023-04-23T13:37:17.391Z,15.80
2023-04-23T13:39:44.620Z,16.27
2023-04-23T13:42:11.469Z,15.77
2023-04-23T13:44:38.021Z,16.02
2023-04-23T13:47:04.735Z,16.33
2023-04-23T13:49:31.329Z,16.57
2023-04-23T13:52:01.120Z,16.12
2023-04-23T13:54:27.972Z,16.52
2023-04-23T13:56:55.612Z,15.89
2023-04-23T13:59:22.174Z,15.24
2023-04-23T14:01:51.699Z,15.82
2023-04-23T14:04:18.900Z,16.33
2023-04-23T14:06:45.546Z,16.60
2023-04-23T14:09:12.149Z,16.34
2023-04-23T14:11:40.533Z,16.51
2023-04-23T14:14:07.686Z,16.63
2023-04-23T14:16:34.714Z,16.79
2023-04-23T14:19:01.367Z,16.80
2023-04-23T14:21:27.990Z,16.38
2023-04-23T14:24:17.091Z,16.17
2023-04-23T14:26:49.265Z,16.70
2023-04-23T14:29:34.870Z,17.07
2023-04-23T14:32:01.527Z,16.73
2023-04-23T14:34:28.222Z,16.38
2023-04-23T14:36:54.936Z,16.56
2023-04-23T14:39:26.375Z,16.93
2023-04-23T14:41:53.033Z,16.21
2023-04-23T14:44:19.640Z,16.78
2023-04-23T14:46:46.424Z,16.24
2023-04-23T14:49:12.964Z,17.05
2023-04-23T14:51:39.548Z,17.20
2023-04-23T14:54:06.321Z,17.08
2023-04-23T14:56:33.006Z,17.22
2023-04-23T14:58:59.706Z,17.36
2023-04-23T15:01:26.782Z,17.88
2023-04-23T15:03:53.546Z,17.99
2023-04-23T15:06:20.511Z,18.04
2023-04-23T15:08:47.084Z,18.37
2023-04-23T15:11:13.968Z,18.58
2023-04-23T15:13:45.661Z,18.61
2023-04-23T15:16:26.274Z,19.11
2023-04-23T15:19:03.419Z,19.37
2023-04-23T15:21:30.010Z,19.45
2023-04-23T15:23:56.688Z,19.65
2023-04-23T15:26:23.630Z,20.06
2023-04-23T15:28:51.722Z,20.01
2023-04-23T15:31:18.423Z,20.37
2023-04-23T15:33:45.042Z,19.79
2023-04-23T15:36:11.619Z,19.95
2023-04-23T15:38:38.206Z,20.93
2023-04-23T15:41:05.485Z,20.93
2023-04-23T15:43:32.056Z,21.60
2023-04-23T15:46:00.808Z,23.10
2023-04-23T15:48:27.880Z,23.30
2023-04-23T15:50:54.518Z,22.33
2023-04-23T15:53:22.881Z,23.89
2023-04-23T15:55:50.432Z,24.05
2023-04-23T15:58:17.599Z,24.00
2023-04-23T16:00:44.316Z,24.23
2023-04-23T16:03:11.195Z,24.61
2023-04-23T16:05:37.842Z,24.51
2023-04-23T16:08:04.558Z,25.21
2023-04-23T16:10:33.983Z,25.20
2023-04-23T16:13:01.799Z,25.21
2023-04-23T16:15:28.577Z,25.30
2023-04-23T16:17:56.448Z,25.96
2023-04-23T16:20:23.288Z,25.89
2023-04-23T16:22:49.912Z,25.66
2023-04-23T16:25:16.563Z,24.86
2023-04-23T16:27:43.180Z,24.70
2023-04-23T16:30:13.889Z,25.38
2023-04-23T16:32:40.577Z,25.92
2023-04-23T16:35:07.962Z,25.48
2023-04-23T16:37:34.595Z,26.14
2023-04-23T16:40:02.175Z,25.83
2023-04-23T16:42:29.953Z,26.38
2023-04-23T16:44:56.648Z,25.60
2023-04-23T16:47:23.263Z,26.73
2023-04-23T16:49:49.878Z,26.83
2023-04-23T16:52:16.515Z,26.93
2023-04-23T16:54:43.762Z,26.59
2023-04-23T16:57:11.542Z,27.41
2023-04-23T16:59:38.179Z,27.34
2023-04-23T17:02:04.932Z,27.44
2023-04-23T17:04:31.664Z,27.28
2023-04-23T17:06:58.389Z,27.20
2023-04-23T17:09:24.924Z,27.48
2023-04-23T17:11:51.553Z,26.52
2023-04-23T17:14:18.124Z,27.69
2023-04-23T17:16:44.820Z,27.84
2023-04-23T17:19:11.761Z,27.95
2023-04-23T17:21:38.469Z,28.06
2023-04-23T17:24:05.376Z,27.93
2023-04-23T17:26:31.976Z,27.21
2023-04-23T17:28:58.539Z,28.22
2023-04-23T17:31:25.261Z,28.00
2023-04-23T17:33:53.681Z,27.77
2023-04-23T17:36:20.483Z,27.59
2023-04-23T17:38:47.160Z,27.98
2023-04-23T17:41:13.785Z,28.07
2023-04-23T17:43:40.415Z,27.71
2023-04-23T17:46:07.073Z,28.06
2023-04-23T17:48:33.690Z,28.27
2023-04-23T17:51:00.653Z,28.70
2023-04-23T17:53:27.364Z,28.93
2023-04-23T17:55:58.588Z,28.26
2023-04-23T17:58:25.625Z,28.86
2023-04-23T18:00:53.027Z,28.55
2023-04-23T18:03:21.865Z,28.10
2023-04-23T18:05:48.755Z,28.23
2023-04-23T18:08:19.573Z,28.45
2023-04-23T18:10:46.492Z,28.74
2023-04-23T18:13:13.562Z,28.91
2023-04-23T18:15:42.098Z,28.73
2023-04-23T18:18:09.081Z,28.52
2023-04-23T18:20:38.839Z,29.16
2023-04-23T18:23:06.647Z,30.55
2023-04-23T18:25:33.758Z,28.41
2023-04-23T18:28:00.456Z,29.12
2023-04-23T18:30:27.040Z,30.16
2023-04-23T18:33:03.521Z,29.59
2023-04-23T18:35:30.241Z,31.03
2023-04-23T18:38:02.727Z,32.94
2023-04-23T18:40:32.382Z,31.07
2023-04-23T18:42:58.945Z,32.72
2023-04-23T18:45:25.687Z,32.68
2023-04-23T18:47:57.279Z,31.86
2023-04-23T18:50:30.088Z,32.04
2023-04-23T18:52:56.776Z,31.63
2023-04-23T18:55:23.656Z,32.31
2023-04-23T18:57:50.452Z,32.42
2023-04-23T19:00:17.210Z,31.06
2023-04-23T19:02:43.890Z,30.57
2023-04-23T19:05:11.334Z,33.77
2023-04-23T19:07:40.497Z,33.39
2023-04-23T19:10:07.531Z,32.56
2023-04-23T19:12:34.107Z,31.80
2023-04-23T19:15:00.848Z,30.64
2023-04-23T19:17:27.453Z,31.45
2023-04-23T19:19:54.014Z,31.72
2023-04-23T19:22:22.142Z,32.17
2023-04-23T19:24:48.764Z,33.46
2023-04-23T19:27:15.445Z,32.59
2023-04-23T19:29:42.306Z,33.54
2023-04-23T19:32:09.007Z,34.08
2023-04-23T19:34:35.755Z,34.66
2023-04-23T19:37:02.380Z,33.69
2023-04-23T19:39:29.156Z,31.52
2023-04-23T19:41:55.771Z,31.99
2023-04-23T19:44:22.384Z,32.83
2023-04-23T19:46:48.965Z,32.30
2023-04-23T19:49:15.659Z,31.44
2023-04-23T19:51:43.084Z,31.83
2023-04-23T19:54:09.735Z,32.63
2023-04-23T19:56:36.296Z,32.60
2023-04-23T19:59:02.931Z,33.10
2023-04-23T20:01:30.176Z,32.21
2023-04-23T20:03:57.084Z,32.80
2023-04-23T20:06:23.689Z,35.01
2023-04-23T20:09:06.781Z,33.72
2023-04-23T20:11:34.763Z,32.58
2023-04-23T20:14:01.843Z,32.43
2023-04-23T20:16:28.568Z,32.05
2023-04-23T20:18:58.430Z,31.20
2023-04-23T20:21:25.075Z,31.48
2023-04-23T20:23:51.763Z,32.26
2023-04-23T20:26:18.866Z,32.60
2023-04-23T20:28:47.364Z,32.44
2023-04-23T20:31:14.613Z,31.14
2023-04-23T20:33:41.463Z,31.09
2023-04-23T20:36:10.982Z,32.12
2023-04-23T20:38:38.112Z,32.23
2023-04-23T20:41:05.473Z,31.84
2023-04-23T20:43:33.490Z,31.93
2023-04-23T20:46:00.279Z,31.14
2023-04-23T20:48:29.474Z,31.44
2023-04-23T20:50:56.619Z,31.44
2023-04-23T20:53:23.530Z,31.20
2023-04-23T20:55:50.377Z,31.21
2023-04-23T20:58:17.437Z,31.24
2023-04-23T21:00:44.510Z,32.87
2023-04-23T21:03:11.726Z,33.00
2023-04-23T21:05:40.541Z,33.35
2023-04-23T21:08:08.013Z,31.71
2023-04-23T21:10:34.692Z,31.79
2023-04-23T21:13:01.578Z,32.27
2023-04-23T21:15:29.723Z,32.71
2023-04-23T21:17:56.943Z,32.17
2023-04-23T21:20:23.550Z,31.25
2023-04-23T21:22:50.416Z,33.37
2023-04-23T21:25:17.342Z,32.98
2023-04-23T21:27:46.028Z,32.84
2023-04-23T21:30:43.845Z,32.01
2023-04-23T21:33:10.593Z,32.13
2023-04-23T21:35:37.181Z,31.66
2023-04-23T21:38:03.845Z,32.31
2023-04-23T21:40:30.808Z,31.96
2023-04-23T21:42:57.385Z,31.76
2023-04-23T21:45:23.969Z,32.08
2023-04-23T21:47:51.087Z,31.89
2023-04-23T21:50:17.719Z,32.22
2023-04-23T21:52:44.599Z,32.21
2023-04-23T21:55:12.507Z,31.83
2023-04-23T21:57:39.250Z,32.04
2023-04-23T22:00:11.262Z,32.91
2023-04-23T22:02:37.987Z,33.41
2023-04-23T22:05:04.824Z,32.47
2023-04-23T22:07:32.322Z,32.19
2023-04-23T22:10:00.376Z,32.63
2023-04-23T22:12:27.042Z,32.88
2023-04-23T22:14:53.579Z,32.89
2023-04-23T22:17:20.221Z,32.37
2023-04-23T22:19:46.817Z,32.25
2023-04-23T22:22:13.623Z,32.38
2023-04-23T22:24:40.230Z,32.19
2023-04-23T22:27:06.889Z,32.32
2023-04-23T22:29:34.127Z,32.54
2023-04-23T22:32:01.548Z,32.29
2023-04-23T22:34:28.235Z,34.87
2023-04-23T22:36:54.750Z,33.22
2023-04-23T22:39:21.533Z,33.11
2023-04-23T22:41:48.099Z,33.68
2023-04-23T22:44:14.633Z,32.71
2023-04-23T22:46:41.379Z,33.36
2023-04-23T22:49:08.246Z,33.00
2023-04-23T22:51:35.563Z,33.43
2023-04-23T22:54:02.441Z,33.67
2023-04-23T22:56:29.419Z,34.69
2023-04-23T22:58:56.064Z,33.67
2023-04-23T23:01:22.730Z,33.57
2023-04-23T23:03:49.399Z,33.43
2023-04-23T23:06:17.732Z,33.02
2023-04-23T23:08:44.423Z,32.64
2023-04-23T23:11:11.065Z,32.80
2023-04-23T23:13:39.656Z,33.45
2023-04-23T23:16:06.831Z,33.49
2023-04-23T23:18:33.560Z,32.87
2023-04-23T23:21:00.121Z,33.08
2023-04-23T23:23:26.775Z,32.88
2023-04-23T23:25:53.337Z,33.06
2023-04-23T23:28:19.932Z,32.74
2023-04-23T23:30:47.974Z,34.93
2023-04-23T23:33:14.797Z,35.02
2023-04-23T23:35:43.588Z,33.71
2023-04-23T23:38:10.887Z,32.98
2023-04-23T23:40:37.631Z,34.58
2023-04-23T23:43:04.225Z,33.29
2023-04-23T23:45:30.976Z,34.07
2023-04-23T23:47:57.956Z,34.11
2023-04-23T23:50:24.539Z,33.22
2023-04-23T23:52:51.125Z,33.95
2023-04-23T23:55:17.710Z,34.00
2023-04-23T23:57:44.287Z,34.18
